sensor_id;sensor_type;location;lat;lon;timestamp;P1;durP1;ratioP1;P2;durP2;ratioP2
57395;SDS011;43222;52.912;6.940;2024-03-02T00:01:34;7.03;;;4.30;;
57395;SDS011;43222;52.912;6.940;2024-03-02T00:04:02;6.95;;;4.35;;
57395;SDS011;43222;52.912;6.940;2024-03-02T00:06:28;8.55;;;4.60;;
57395;SDS011;43222;52.912;6.940;2024-03-02T00:08:56;7.93;;;4.50;;
57395;SDS011;43222;52.912;6.940;2024-03-02T00:11:24;7.65;;;4.07;;
57395;SDS011;43222;52.912;6.940;2024-03-02T00:13:53;9.00;;;4.90;;
57395;SDS011;43222;52.912;6.940;2024-03-02T00:16:19;7.18;;;4.50;;
57395;SDS011;43222;52.912;6.940;2024-03-02T00:18:45;8.90;;;4.53;;
57395;SDS011;43222;52.912;6.940;2024-03-02T00:21:11;7.35;;;4.30;;
57395;SDS011;43222;52.912;6.940;2024-03-02T00:23:39;7.90;;;4.28;;
57395;SDS011;43222;52.912;6.940;2024-03-02T00:26:06;8.48;;;4.72;;
57395;SDS011;43222;52.912;6.940;2024-03-02T00:28:34;8.65;;;4.65;;
57395;SDS011;43222;52.912;6.940;2024-03-02T00:31:06;8.55;;;4.85;;
57395;SDS011;43222;52.912;6.940;2024-03-02T00:35:59;8.10;;;4.28;;
57395;SDS011;43222;52.912;6.940;2024-03-02T00:38:26;7.97;;;4.43;;
57395;SDS011;43222;52.912;6.940;2024-03-02T00:40:53;8.70;;;4.57;;
57395;SDS011;43222;52.912;6.940;2024-03-02T00:45:48;6.70;;;4.18;;
57395;SDS011;43222;52.912;6.940;2024-03-02T00:48:15;7.53;;;4.70;;
57395;SDS011;43222;52.912;6.940;2024-03-02T00:50:42;8.55;;;4.60;;
57395;SDS011;43222;52.912;6.940;2024-03-02T00:53:11;7.22;;;4.45;;
57395;SDS011;43222;52.912;6.940;2024-03-02T00:55:37;8.50;;;4.60;;
57395;SDS011;43222;52.912;6.940;2024-03-02T00:58:04;9.02;;;4.85;;
57395;SDS011;43222;52.912;6.940;2024-03-02T01:00:30;8.23;;;4.50;;
57395;SDS011;43222;52.912;6.940;2024-03-02T01:02:56;7.80;;;4.72;;
57395;SDS011;43222;52.912;6.940;2024-03-02T01:05:22;8.00;;;5.20;;
57395;SDS011;43222;52.912;6.940;2024-03-02T01:07:48;7.05;;;4.75;;
57395;SDS011;43222;52.912;6.940;2024-03-02T01:10:15;7.45;;;4.47;;
57395;SDS011;43222;52.912;6.940;2024-03-02T01:12:41;9.27;;;4.93;;
57395;SDS011;43222;52.912;6.940;2024-03-02T01:15:07;8.25;;;4.78;;
57395;SDS011;43222;52.912;6.940;2024-03-02T01:17:33;8.98;;;4.80;;
57395;SDS011;43222;52.912;6.940;2024-03-02T01:19:59;8.45;;;4.20;;
57395;SDS011;43222;52.912;6.940;2024-03-02T01:22:25;8.93;;;4.60;;
57395;SDS011;43222;52.912;6.940;2024-03-02T01:24:51;6.50;;;4.10;;
57395;SDS011;43222;52.912;6.940;2024-03-02T01:27:17;6.78;;;4.40;;
57395;SDS011;43222;52.912;6.940;2024-03-02T01:29:43;8.30;;;4.50;;
57395;SDS011;43222;52.912;6.940;2024-03-02T01:32:09;7.70;;;4.63;;
57395;SDS011;43222;52.912;6.940;2024-03-02T01:34:36;8.38;;;4.75;;
57395;SDS011;43222;52.912;6.940;2024-03-02T01:37:02;7.47;;;4.13;;
57395;SDS011;43222;52.912;6.940;2024-03-02T01:39:28;7.13;;;4.07;;
57395;SDS011;43222;52.912;6.940;2024-03-02T01:41:54;6.85;;;3.90;;
57395;SDS011;43222;52.912;6.940;2024-03-02T01:44:21;7.53;;;4.28;;
57395;SDS011;43222;52.912;6.940;2024-03-02T01:46:47;8.07;;;4.00;;
57395;SDS011;43222;52.912;6.940;2024-03-02T01:49:13;6.45;;;4.43;;
57395;SDS011;43222;52.912;6.940;2024-03-02T01:51:39;7.55;;;4.00;;
57395;SDS011;43222;52.912;6.940;2024-03-02T01:54:05;7.15;;;3.80;;
57395;SDS011;43222;52.912;6.940;2024-03-02T01:56:31;7.38;;;4.07;;
57395;SDS011;43222;52.912;6.940;2024-03-02T01:58:58;6.18;;;3.85;;
57395;SDS011;43222;52.912;6.940;2024-03-02T02:01:24;8.18;;;4.07;;
57395;SDS011;43222;52.912;6.940;2024-03-02T02:03:50;6.90;;;4.00;;
57395;SDS011;43222;52.912;6.940;2024-03-02T02:06:16;7.13;;;4.15;;
57395;SDS011;43222;52.912;6.940;2024-03-02T02:08:42;8.30;;;4.13;;
57395;SDS011;43222;52.912;6.940;2024-03-02T02:11:08;7.97;;;4.00;;
57395;SDS011;43222;52.912;6.940;2024-03-02T02:13:34;7.15;;;3.90;;
57395;SDS011;43222;52.912;6.940;2024-03-02T02:16:06;6.35;;;3.67;;
57395;SDS011;43222;52.912;6.940;2024-03-02T02:18:33;6.35;;;3.80;;
57395;SDS011;43222;52.912;6.940;2024-03-02T02:20:59;7.30;;;3.55;;
57395;SDS011;43222;52.912;6.940;2024-03-02T02:23:25;6.45;;;3.90;;
57395;SDS011;43222;52.912;6.940;2024-03-02T02:25:51;6.88;;;4.00;;
57395;SDS011;43222;52.912;6.940;2024-03-02T02:28:17;6.57;;;3.42;;
57395;SDS011;43222;52.912;6.940;2024-03-02T02:30:43;7.00;;;3.70;;
57395;SDS011;43222;52.912;6.940;2024-03-02T02:33:09;6.53;;;3.45;;
57395;SDS011;43222;52.912;6.940;2024-03-02T02:35:35;6.97;;;4.03;;
57395;SDS011;43222;52.912;6.940;2024-03-02T02:38:02;5.90;;;3.53;;
57395;SDS011;43222;52.912;6.940;2024-03-02T02:40:28;6.97;;;3.58;;
57395;SDS011;43222;52.912;6.940;2024-03-02T02:42:55;7.63;;;3.40;;
57395;SDS011;43222;52.912;6.940;2024-03-02T02:45:22;6.28;;;3.60;;
57395;SDS011;43222;52.912;6.940;2024-03-02T02:47:48;6.75;;;3.67;;
57395;SDS011;43222;52.912;6.940;2024-03-02T02:50:14;7.35;;;3.60;;
57395;SDS011;43222;52.912;6.940;2024-03-02T02:52:41;6.90;;;3.65;;
57395;SDS011;43222;52.912;6.940;2024-03-02T02:55:08;7.15;;;3.60;;
57395;SDS011;43222;52.912;6.940;2024-03-02T02:57:35;8.00;;;3.42;;
57395;SDS011;43222;52.912;6.940;2024-03-02T03:00:07;6.28;;;3.47;;
57395;SDS011;43222;52.912;6.940;2024-03-02T03:02:39;6.80;;;3.28;;
57395;SDS011;43222;52.912;6.940;2024-03-02T03:05:06;6.60;;;3.17;;
57395;SDS011;43222;52.912;6.940;2024-03-02T03:07:33;5.65;;;3.28;;
57395;SDS011;43222;52.912;6.940;2024-03-02T03:09:59;5.70;;;3.30;;
57395;SDS011;43222;52.912;6.940;2024-03-02T03:12:26;6.18;;;3.22;;
57395;SDS011;43222;52.912;6.940;2024-03-02T03:14:52;7.20;;;3.00;;
57395;SDS011;43222;52.912;6.940;2024-03-02T03:17:18;6.10;;;3.40;;
57395;SDS011;43222;52.912;6.940;2024-03-02T03:19:44;7.80;;;3.33;;
57395;SDS011;43222;52.912;6.940;2024-03-02T03:22:10;6.97;;;3.30;;
57395;SDS011;43222;52.912;6.940;2024-03-02T03:24:36;5.90;;;3.00;;
57395;SDS011;43222;52.912;6.940;2024-03-02T03:27:02;5.32;;;3.08;;
57395;SDS011;43222;52.912;6.940;2024-03-02T03:29:28;6.35;;;3.05;;
57395;SDS011;43222;52.912;6.940;2024-03-02T03:31:54;6.05;;;3.17;;
57395;SDS011;43222;52.912;6.940;2024-03-02T03:34:20;7.07;;;3.17;;
57395;SDS011;43222;52.912;6.940;2024-03-02T03:36:46;5.00;;;2.85;;
57395;SDS011;43222;52.912;6.940;2024-03-02T03:39:13;6.47;;;3.08;;
57395;SDS011;43222;52.912;6.940;2024-03-02T03:41:40;6.57;;;3.28;;
57395;SDS011;43222;52.912;6.940;2024-03-02T03:44:06;7.68;;;3.20;;
57395;SDS011;43222;52.912;6.940;2024-03-02T03:46:32;6.65;;;3.25;;
57395;SDS011;43222;52.912;6.940;2024-03-02T03:48:58;6.85;;;3.20;;
57395;SDS011;43222;52.912;6.940;2024-03-02T03:51:24;7.03;;;2.95;;
57395;SDS011;43222;52.912;6.940;2024-03-02T03:53:50;6.15;;;3.03;;
57395;SDS011;43222;52.912;6.940;2024-03-02T03:56:16;7.10;;;3.25;;
57395;SDS011;43222;52.912;6.940;2024-03-02T03:58:42;8.18;;;2.90;;
57395;SDS011;43222;52.912;6.940;2024-03-02T04:01:08;6.53;;;2.88;;
57395;SDS011;43222;52.912;6.940;2024-03-02T04:03:35;5.28;;;2.58;;
57395;SDS011;43222;52.912;6.940;2024-03-02T04:06:01;6.15;;;3.28;;
57395;SDS011;43222;52.912;6.940;2024-03-02T04:08:27;6.03;;;2.97;;
57395;SDS011;43222;52.912;6.940;2024-03-02T04:10:53;6.70;;;3.20;;
57395;SDS011;43222;52.912;6.940;2024-03-02T04:13:19;5.80;;;3.00;;
57395;SDS011;43222;52.912;6.940;2024-03-02T04:15:46;5.75;;;3.08;;
57395;SDS011;43222;52.912;6.940;2024-03-02T04:18:12;7.15;;;3.50;;
57395;SDS011;43222;52.912;6.940;2024-03-02T04:20:38;6.07;;;2.80;;
57395;SDS011;43222;52.912;6.940;2024-03-02T04:23:04;6.80;;;2.92;;
57395;SDS011;43222;52.912;6.940;2024-03-02T04:25:30;7.55;;;3.13;;
57395;SDS011;43222;52.912;6.940;2024-03-02T04:27:56;10.15;;;3.63;;
57395;SDS011;43222;52.912;6.940;2024-03-02T04:30:23;5.57;;;3.22;;
57395;SDS011;43222;52.912;6.940;2024-03-02T04:32:53;6.75;;;3.17;;
57395;SDS011;43222;52.912;6.940;2024-03-02T04:35:19;6.22;;;3.13;;
57395;SDS011;43222;52.912;6.940;2024-03-02T04:37:46;6.05;;;2.97;;
57395;SDS011;43222;52.912;6.940;2024-03-02T04:40:12;6.97;;;2.90;;
57395;SDS011;43222;52.912;6.940;2024-03-02T04:42:38;5.93;;;3.28;;
57395;SDS011;43222;52.912;6.940;2024-03-02T04:45:04;6.57;;;3.17;;
57395;SDS011;43222;52.912;6.940;2024-03-02T04:47:30;6.88;;;3.22;;
57395;SDS011;43222;52.912;6.940;2024-03-02T04:49:57;5.95;;;3.17;;
57395;SDS011;43222;52.912;6.940;2024-03-02T04:52:23;6.80;;;3.45;;
57395;SDS011;43222;52.912;6.940;2024-03-02T04:54:49;8.70;;;3.30;;
57395;SDS011;43222;52.912;6.940;2024-03-02T04:57:33;7.22;;;3.35;;
57395;SDS011;43222;52.912;6.940;2024-03-02T04:59:59;6.93;;;3.45;;
57395;SDS011;43222;52.912;6.940;2024-03-02T05:02:26;7.22;;;3.38;;
57395;SDS011;43222;52.912;6.940;2024-03-02T05:04:52;7.25;;;3.80;;
57395;SDS011;43222;52.912;6.940;2024-03-02T05:07:18;8.15;;;3.70;;
57395;SDS011;43222;52.912;6.940;2024-03-02T05:09:44;7.43;;;3.30;;
57395;SDS011;43222;52.912;6.940;2024-03-02T05:12:10;7.88;;;3.70;;
57395;SDS011;43222;52.912;6.940;2024-03-02T05:15:12;7.03;;;3.83;;
57395;SDS011;43222;52.912;6.940;2024-03-02T05:17:38;7.15;;;3.92;;
57395;SDS011;43222;52.912;6.940;2024-03-02T05:20:05;7.60;;;3.78;;
57395;SDS011;43222;52.912;6.940;2024-03-02T05:22:33;6.40;;;3.65;;
57395;SDS011;43222;52.912;6.940;2024-03-02T05:24:59;6.50;;;3.60;;
57395;SDS011;43222;52.912;6.940;2024-03-02T05:27:26;5.60;;;3.33;;
57395;SDS011;43222;52.912;6.940;2024-03-02T05:29:52;7.10;;;3.70;;
57395;SDS011;43222;52.912;6.940;2024-03-02T05:32:18;5.85;;;3.60;;
57395;SDS011;43222;52.912;6.940;2024-03-02T05:34:44;7.10;;;3.40;;
57395;SDS011;43222;52.912;6.940;2024-03-02T05:37:10;6.93;;;3.50;;
57395;SDS011;43222;52.912;6.940;2024-03-02T05:39:36;6.45;;;3.50;;
57395;SDS011;43222;52.912;6.940;2024-03-02T05:42:02;7.28;;;3.80;;
57395;SDS011;43222;52.912;6.940;2024-03-02T05:44:28;7.03;;;3.90;;
57395;SDS011;43222;52.912;6.940;2024-03-02T05:46:55;6.88;;;3.55;;
57395;SDS011;43222;52.912;6.940;2024-03-02T05:49:21;7.35;;;3.67;;
57395;SDS011;43222;52.912;6.940;2024-03-02T05:51:47;9.10;;;3.70;;
57395;SDS011;43222;52.912;6.940;2024-03-02T05:54:13;7.15;;;3.50;;
57395;SDS011;43222;52.912;6.940;2024-03-02T05:56:39;6.47;;;3.60;;
57395;SDS011;43222;52.912;6.940;2024-03-02T05:59:05;6.97;;;3.90;;
57395;SDS011;43222;52.912;6.940;2024-03-02T06:01:44;7.32;;;3.70;;
57395;SDS011;43222;52.912;6.940;2024-03-02T06:04:11;8.00;;;3.88;;
57395;SDS011;43222;52.912;6.940;2024-03-02T06:06:37;8.05;;;4.10;;
57395;SDS011;43222;52.912;6.940;2024-03-02T06:09:04;8.15;;;3.92;;
57395;SDS011;43222;52.912;6.940;2024-03-02T06:11:36;7.35;;;3.85;;
57395;SDS011;43222;52.912;6.940;2024-03-02T06:14:03;6.45;;;3.75;;
57395;SDS011;43222;52.912;6.940;2024-03-02T06:16:29;6.57;;;4.05;;
57395;SDS011;43222;52.912;6.940;2024-03-02T06:18:56;8.63;;;4.00;;
57395;SDS011;43222;52.912;6.940;2024-03-02T06:21:25;6.47;;;3.95;;
57395;SDS011;43222;52.912;6.940;2024-03-02T06:23:51;8.20;;;4.15;;
57395;SDS011;43222;52.912;6.940;2024-03-02T06:26:17;8.80;;;4.07;;
57395;SDS011;43222;52.912;6.940;2024-03-02T06:28:43;7.55;;;4.05;;
57395;SDS011;43222;52.912;6.940;2024-03-02T06:31:10;8.45;;;4.57;;
57395;SDS011;43222;52.912;6.940;2024-03-02T06:33:36;8.30;;;4.22;;
57395;SDS011;43222;52.912;6.940;2024-03-02T06:36:02;7.53;;;4.20;;
57395;SDS011;43222;52.912;6.940;2024-03-02T06:38:28;7.85;;;4.13;;
57395;SDS011;43222;52.912;6.940;2024-03-02T06:40:57;7.25;;;3.63;;
57395;SDS011;43222;52.912;6.940;2024-03-02T06:43:23;6.93;;;3.75;;
57395;SDS011;43222;52.912;6.940;2024-03-02T06:45:52;7.22;;;3.42;;
57395;SDS011;43222;52.912;6.940;2024-03-02T06:48:18;6.93;;;3.53;;
57395;SDS011;43222;52.912;6.940;2024-03-02T06:50:48;6.30;;;3.50;;
57395;SDS011;43222;52.912;6.940;2024-03-02T06:53:14;7.78;;;3.63;;
57395;SDS011;43222;52.912;6.940;2024-03-02T06:55:43;7.38;;;3.75;;
57395;SDS011;43222;52.912;6.940;2024-03-02T06:58:10;6.18;;;3.40;;
57395;SDS011;43222;52.912;6.940;2024-03-02T07:00:37;8.15;;;3.50;;
57395;SDS011;43222;52.912;6.940;2024-03-02T07:03:03;7.72;;;3.88;;
57395;SDS011;43222;52.912;6.940;2024-03-02T07:05:29;6.32;;;3.78;;
57395;SDS011;43222;52.912;6.940;2024-03-02T07:07:55;7.22;;;4.15;;
57395;SDS011;43222;52.912;6.940;2024-03-02T07:10:21;7.47;;;3.33;;
57395;SDS011;43222;52.912;6.940;2024-03-02T07:12:48;6.95;;;3.70;;
57395;SDS011;43222;52.912;6.940;2024-03-02T07:15:14;8.23;;;3.67;;
57395;SDS011;43222;52.912;6.940;2024-03-02T07:17:52;6.10;;;3.50;;
57395;SDS011;43222;52.912;6.940;2024-03-02T07:20:18;7.15;;;3.88;;
57395;SDS011;43222;52.912;6.940;2024-03-02T07:22:44;6.57;;;3.40;;
57395;SDS011;43222;52.912;6.940;2024-03-02T07:25:10;7.88;;;3.58;;
57395;SDS011;43222;52.912;6.940;2024-03-02T07:27:37;6.88;;;3.65;;
57395;SDS011;43222;52.912;6.940;2024-03-02T07:30:03;7.30;;;3.70;;
57395;SDS011;43222;52.912;6.940;2024-03-02T07:32:29;7.07;;;3.70;;
57395;SDS011;43222;52.912;6.940;2024-03-02T07:34:55;6.97;;;3.83;;
57395;SDS011;43222;52.912;6.940;2024-03-02T07:37:22;7.72;;;3.78;;
57395;SDS011;43222;52.912;6.940;2024-03-02T07:39:48;8.07;;;3.50;;
57395;SDS011;43222;52.912;6.940;2024-03-02T07:42:15;7.78;;;4.22;;
57395;SDS011;43222;52.912;6.940;2024-03-02T07:44:41;7.93;;;3.25;;
57395;SDS011;43222;52.912;6.940;2024-03-02T07:47:07;5.97;;;3.55;;
57395;SDS011;43222;52.912;6.940;2024-03-02T07:49:33;8.57;;;3.70;;
57395;SDS011;43222;52.912;6.940;2024-03-02T07:52:00;7.88;;;3.50;;
57395;SDS011;43222;52.912;6.940;2024-03-02T07:54:26;7.25;;;3.22;;
57395;SDS011;43222;52.912;6.940;2024-03-02T07:56:52;6.30;;;3.47;;
57395;SDS011;43222;52.912;6.940;2024-03-02T07:59:18;6.38;;;3.30;;
57395;SDS011;43222;52.912;6.940;2024-03-02T08:01:44;6.35;;;3.17;;
57395;SDS011;43222;52.912;6.940;2024-03-02T08:04:10;6.82;;;3.22;;
57395;SDS011;43222;52.912;6.940;2024-03-02T08:06:36;7.55;;;3.42;;
57395;SDS011;43222;52.912;6.940;2024-03-02T08:09:02;6.07;;;3.20;;
57395;SDS011;43222;52.912;6.940;2024-03-02T08:11:34;6.00;;;3.20;;
57395;SDS011;43222;52.912;6.940;2024-03-02T08:14:00;5.50;;;3.05;;
57395;SDS011;43222;52.912;6.940;2024-03-02T08:16:26;6.40;;;2.95;;
57395;SDS011;43222;52.912;6.940;2024-03-02T08:18:52;7.22;;;3.38;;
57395;SDS011;43222;52.912;6.940;2024-03-02T08:21:18;6.82;;;2.95;;
57395;SDS011;43222;52.912;6.940;2024-03-02T08:23:44;7.45;;;3.33;;
57395;SDS011;43222;52.912;6.940;2024-03-02T08:26:11;6.63;;;3.20;;
57395;SDS011;43222;52.912;6.940;2024-03-02T08:28:37;6.32;;;3.60;;
57395;SDS011;43222;52.912;6.940;2024-03-02T08:31:05;9.38;;;3.60;;
57395;SDS011;43222;52.912;6.940;2024-03-02T08:33:31;7.85;;;3.70;;
57395;SDS011;43222;52.912;6.940;2024-03-02T08:35:58;7.63;;;3.65;;
57395;SDS011;43222;52.912;6.940;2024-03-02T08:38:24;8.10;;;3.45;;
57395;SDS011;43222;52.912;6.940;2024-03-02T08:40:53;7.65;;;3.42;;
57395;SDS011;43222;52.912;6.940;2024-03-02T08:43:19;6.97;;;3.35;;
57395;SDS011;43222;52.912;6.940;2024-03-02T08:45:45;6.07;;;3.70;;
57395;SDS011;43222;52.912;6.940;2024-03-02T08:48:12;7.35;;;3.40;;
57395;SDS011;43222;52.912;6.940;2024-03-02T08:50:38;6.53;;;3.20;;
57395;SDS011;43222;52.912;6.940;2024-03-02T08:53:04;7.40;;;3.60;;
57395;SDS011;43222;52.912;6.940;2024-03-02T08:55:30;6.57;;;3.65;;
57395;SDS011;43222;52.912;6.940;2024-03-02T08:57:56;7.20;;;3.35;;
57395;SDS011;43222;52.912;6.940;2024-03-02T09:00:22;6.93;;;2.97;;
57395;SDS011;43222;52.912;6.940;2024-03-02T09:02:48;5.88;;;3.28;;
57395;SDS011;43222;52.912;6.940;2024-03-02T09:05:15;6.07;;;2.78;;
57395;SDS011;43222;52.912;6.940;2024-03-02T09:07:41;5.68;;;3.20;;
57395;SDS011;43222;52.912;6.940;2024-03-02T09:10:07;6.60;;;2.90;;
57395;SDS011;43222;52.912;6.940;2024-03-02T09:12:34;7.07;;;3.13;;
57395;SDS011;43222;52.912;6.940;2024-03-02T09:15:00;8.57;;;2.75;;
57395;SDS011;43222;52.912;6.940;2024-03-02T09:17:28;5.57;;;2.65;;
57395;SDS011;43222;52.912;6.940;2024-03-02T09:19:54;6.22;;;2.50;;
57395;SDS011;43222;52.912;6.940;2024-03-02T09:22:20;5.93;;;2.30;;
57395;SDS011;43222;52.912;6.940;2024-03-02T09:24:46;20.17;;;11.13;;
57395;SDS011;43222;52.912;6.940;2024-03-02T09:27:12;10.95;;;5.18;;
57395;SDS011;43222;52.912;6.940;2024-03-02T09:29:38;7.25;;;3.42;;
57395;SDS011;43222;52.912;6.940;2024-03-02T09:32:08;6.30;;;3.47;;
57395;SDS011;43222;52.912;6.940;2024-03-02T09:34:34;6.68;;;3.45;;
57395;SDS011;43222;52.912;6.940;2024-03-02T09:37:00;9.50;;;3.38;;
57395;SDS011;43222;52.912;6.940;2024-03-02T09:39:26;8.73;;;3.20;;
57395;SDS011;43222;52.912;6.940;2024-03-02T09:41:53;6.22;;;3.10;;
57395;SDS011;43222;52.912;6.940;2024-03-02T09:44:19;5.80;;;2.70;;
57395;SDS011;43222;52.912;6.940;2024-03-02T09:46:50;6.75;;;2.80;;
57395;SDS011;43222;52.912;6.940;2024-03-02T09:49:16;5.43;;;2.38;;
57395;SDS011;43222;52.912;6.940;2024-03-02T09:51:45;6.05;;;2.75;;
57395;SDS011;43222;52.912;6.940;2024-03-02T09:54:12;5.55;;;2.50;;
57395;SDS011;43222;52.912;6.940;2024-03-02T09:56:38;5.97;;;2.28;;
57395;SDS011;43222;52.912;6.940;2024-03-02T09:59:04;5.88;;;2.40;;
57395;SDS011;43222;52.912;6.940;2024-03-02T10:01:31;5.38;;;2.33;;
57395;SDS011;43222;52.912;6.940;2024-03-02T10:04:00;5.75;;;2.25;;
57395;SDS011;43222;52.912;6.940;2024-03-02T10:06:28;6.75;;;2.63;;
57395;SDS011;43222;52.912;6.940;2024-03-02T10:08:54;5.72;;;2.72;;
57395;SDS011;43222;52.912;6.940;2024-03-02T10:11:31;6.50;;;3.10;;
57395;SDS011;43222;52.912;6.940;2024-03-02T10:14:07;7.03;;;2.80;;
57395;SDS011;43222;52.912;6.940;2024-03-02T10:16:37;5.88;;;2.90;;
57395;SDS011;43222;52.912;6.940;2024-03-02T10:22:06;9.40;;;3.03;;
57395;SDS011;43222;52.912;6.940;2024-03-02T10:27:38;6.70;;;3.22;;
57395;SDS011;43222;52.912;6.940;2024-03-02T10:29:57;5.35;;;2.80;;
57395;SDS011;43222;52.912;6.940;2024-03-02T10:32:23;8.10;;;2.90;;
57395;SDS011;43222;52.912;6.940;2024-03-02T10:34:49;8.48;;;3.25;;
57395;SDS011;43222;52.912;6.940;2024-03-02T10:37:15;6.40;;;2.60;;
57395;SDS011;43222;52.912;6.940;2024-03-02T10:39:46;7.22;;;2.53;;
57395;SDS011;43222;52.912;6.940;2024-03-02T10:42:12;7.30;;;2.70;;
57395;SDS011;43222;52.912;6.940;2024-03-02T10:44:40;7.30;;;2.85;;
57395;SDS011;43222;52.912;6.940;2024-03-02T10:47:07;7.25;;;2.13;;
57395;SDS011;43222;52.912;6.940;2024-03-02T10:49:34;6.80;;;2.47;;
57395;SDS011;43222;52.912;6.940;2024-03-02T10:52:01;6.63;;;2.40;;
57395;SDS011;43222;52.912;6.940;2024-03-02T10:54:27;7.43;;;2.40;;
57395;SDS011;43222;52.912;6.940;2024-03-02T10:57:01;6.53;;;2.75;;
57395;SDS011;43222;52.912;6.940;2024-03-02T10:59:28;8.27;;;2.70;;
57395;SDS011;43222;52.912;6.940;2024-03-02T11:01:59;6.50;;;2.30;;
57395;SDS011;43222;52.912;6.940;2024-03-02T11:04:26;6.60;;;2.33;;
57395;SDS011;43222;52.912;6.940;2024-03-02T11:06:52;6.43;;;3.15;;
57395;SDS011;43222;52.912;6.940;2024-03-02T11:09:21;7.40;;;4.00;;
57395;SDS011;43222;52.912;6.940;2024-03-02T11:11:56;6.50;;;3.83;;
57395;SDS011;43222;52.912;6.940;2024-03-02T11:14:26;9.30;;;4.72;;
57395;SDS011;43222;52.912;6.940;2024-03-02T11:16:55;8.35;;;4.43;;
57395;SDS011;43222;52.912;6.940;2024-03-02T11:19:22;6.13;;;3.67;;
57395;SDS011;43222;52.912;6.940;2024-03-02T11:21:49;8.90;;;4.40;;
57395;SDS011;43222;52.912;6.940;2024-03-02T11:26:49;8.27;;;3.78;;
57395;SDS011;43222;52.912;6.940;2024-03-02T11:32:04;8.38;;;3.05;;
57395;SDS011;43222;52.912;6.940;2024-03-02T11:34:31;7.13;;;2.47;;
57395;SDS011;43222;52.912;6.940;2024-03-02T11:36:58;7.63;;;2.80;;
57395;SDS011;43222;52.912;6.940;2024-03-02T11:39:27;6.80;;;2.35;;
57395;SDS011;43222;52.912;6.940;2024-03-02T11:41:56;7.40;;;2.65;;
57395;SDS011;43222;52.912;6.940;2024-03-02T11:44:24;5.03;;;2.40;;
57395;SDS011;43222;52.912;6.940;2024-03-02T11:47:00;5.63;;;2.67;;
57395;SDS011;43222;52.912;6.940;2024-03-02T11:52:08;7.25;;;2.75;;
57395;SDS011;43222;52.912;6.940;2024-03-02T11:54:35;7.82;;;3.25;;
57395;SDS011;43222;52.912;6.940;2024-03-02T11:57:04;6.20;;;3.13;;
57395;SDS011;43222;52.912;6.940;2024-03-02T11:59:30;6.65;;;2.90;;
57395;SDS011;43222;52.912;6.940;2024-03-02T12:01:56;6.85;;;3.08;;
57395;SDS011;43222;52.912;6.940;2024-03-02T12:04:23;6.53;;;3.03;;
57395;SDS011;43222;52.912;6.940;2024-03-02T12:06:59;6.32;;;2.88;;
57395;SDS011;43222;52.912;6.940;2024-03-02T12:09:26;7.50;;;2.85;;
57395;SDS011;43222;52.912;6.940;2024-03-02T12:12:05;7.63;;;3.00;;
57395;SDS011;43222;52.912;6.940;2024-03-02T12:14:32;6.28;;;2.90;;
57395;SDS011;43222;52.912;6.940;2024-03-02T12:16:58;5.63;;;2.40;;
57395;SDS011;43222;52.912;6.940;2024-03-02T12:19:27;7.10;;;2.78;;
57395;SDS011;43222;52.912;6.940;2024-03-02T12:21:55;7.23;;;2.53;;
57395;SDS011;43222;52.912;6.940;2024-03-02T12:24:21;6.53;;;2.70;;
57395;SDS011;43222;52.912;6.940;2024-03-02T12:26:49;5.40;;;2.63;;
57395;SDS011;43222;52.912;6.940;2024-03-02T12:29:15;6.85;;;2.72;;
57395;SDS011;43222;52.912;6.940;2024-03-02T12:31:42;7.82;;;2.65;;
57395;SDS011;43222;52.912;6.940;2024-03-02T12:34:11;6.13;;;2.20;;
57395;SDS011;43222;52.912;6.940;2024-03-02T12:36:38;9.50;;;2.67;;
57395;SDS011;43222;52.912;6.940;2024-03-02T12:39:04;4.95;;;2.30;;
57395;SDS011;43222;52.912;6.940;2024-03-02T12:41:30;6.30;;;2.65;;
57395;SDS011;43222;52.912;6.940;2024-03-02T12:43:56;5.32;;;2.33;;
57395;SDS011;43222;52.912;6.940;2024-03-02T12:46:22;4.70;;;2.00;;
57395;SDS011;43222;52.912;6.940;2024-03-02T12:48:49;6.97;;;1.95;;
57395;SDS011;43222;52.912;6.940;2024-03-02T12:51:15;6.50;;;1.70;;
57395;SDS011;43222;52.912;6.940;2024-03-02T12:53:44;5.15;;;1.80;;
57395;SDS011;43222;52.912;6.940;2024-03-02T12:56:10;5.60;;;1.60;;
57395;SDS011;43222;52.912;6.940;2024-03-02T12:58:39;7.25;;;2.22;;
57395;SDS011;43222;52.912;6.940;2024-03-02T13:01:08;6.15;;;1.73;;
57395;SDS011;43222;52.912;6.940;2024-03-02T13:03:36;6.72;;;1.80;;
57395;SDS011;43222;52.912;6.940;2024-03-02T13:06:02;5.05;;;1.85;;
57395;SDS011;43222;52.912;6.940;2024-03-02T13:08:28;5.30;;;1.98;;
57395;SDS011;43222;52.912;6.940;2024-03-02T13:10:57;7.63;;;1.38;;
57395;SDS011;43222;52.912;6.940;2024-03-02T13:13:23;6.82;;;1.70;;
57395;SDS011;43222;52.912;6.940;2024-03-02T13:15:49;3.72;;;1.23;;
57395;SDS011;43222;52.912;6.940;2024-03-02T13:18:18;4.80;;;1.40;;
57395;SDS011;43222;52.912;6.940;2024-03-02T13:20:44;5.45;;;1.55;;
57395;SDS011;43222;52.912;6.940;2024-03-02T13:23:10;5.78;;;1.40;;
57395;SDS011;43222;52.912;6.940;2024-03-02T13:25:36;3.83;;;1.50;;
57395;SDS011;43222;52.912;6.940;2024-03-02T13:28:02;4.88;;;1.52;;
57395;SDS011;43222;52.912;6.940;2024-03-02T13:30:28;4.82;;;1.20;;
57395;SDS011;43222;52.912;6.940;2024-03-02T13:32:54;5.30;;;1.30;;
57395;SDS011;43222;52.912;6.940;2024-03-02T13:35:20;4.07;;;1.30;;
57395;SDS011;43222;52.912;6.940;2024-03-02T13:37:46;4.18;;;1.30;;
57395;SDS011;43222;52.912;6.940;2024-03-02T13:40:12;4.20;;;1.30;;
57395;SDS011;43222;52.912;6.940;2024-03-02T13:42:42;5.80;;;1.25;;
57395;SDS011;43222;52.912;6.940;2024-03-02T13:45:08;3.65;;;1.05;;
57395;SDS011;43222;52.912;6.940;2024-03-02T13:47:34;5.00;;;1.20;;
57395;SDS011;43222;52.912;6.940;2024-03-02T13:50:01;6.53;;;1.42;;
57395;SDS011;43222;52.912;6.940;2024-03-02T13:52:27;4.38;;;1.33;;
57395;SDS011;43222;52.912;6.940;2024-03-02T13:54:53;4.57;;;1.42;;
57395;SDS011;43222;52.912;6.940;2024-03-02T13:57:19;4.82;;;1.45;;
57395;SDS011;43222;52.912;6.940;2024-03-02T13:59:45;4.47;;;1.30;;
57395;SDS011;43222;52.912;6.940;2024-03-02T14:02:12;5.57;;;1.55;;
57395;SDS011;43222;52.912;6.940;2024-03-02T14:04:38;5.85;;;2.05;;
57395;SDS011;43222;52.912;6.940;2024-03-02T14:07:04;5.10;;;1.90;;
57395;SDS011;43222;52.912;6.940;2024-03-02T14:09:34;5.07;;;1.95;;
57395;SDS011;43222;52.912;6.940;2024-03-02T14:12:00;6.18;;;2.20;;
57395;SDS011;43222;52.912;6.940;2024-03-02T14:14:26;5.68;;;2.22;;
57395;SDS011;43222;52.912;6.940;2024-03-02T14:16:53;6.05;;;2.50;;
57395;SDS011;43222;52.912;6.940;2024-03-02T14:19:19;6.57;;;2.33;;
57395;SDS011;43222;52.912;6.940;2024-03-02T14:21:46;6.78;;;2.45;;
57395;SDS011;43222;52.912;6.940;2024-03-02T14:24:12;5.63;;;2.40;;
57395;SDS011;43222;52.912;6.940;2024-03-02T14:26:38;5.05;;;2.60;;
57395;SDS011;43222;52.912;6.940;2024-03-02T14:29:05;8.10;;;2.60;;
57395;SDS011;43222;52.912;6.940;2024-03-02T14:31:31;10.15;;;3.00;;
57395;SDS011;43222;52.912;6.940;2024-03-02T14:33:58;6.68;;;2.53;;
57395;SDS011;43222;52.912;6.940;2024-03-02T14:36:26;6.22;;;2.78;;
57395;SDS011;43222;52.912;6.940;2024-03-02T14:38:55;5.28;;;2.70;;
57395;SDS011;43222;52.912;6.940;2024-03-02T14:41:21;5.78;;;2.67;;
57395;SDS011;43222;52.912;6.940;2024-03-02T14:43:49;6.65;;;2.60;;
57395;SDS011;43222;52.912;6.940;2024-03-02T14:46:15;5.43;;;2.83;;
57395;SDS011;43222;52.912;6.940;2024-03-02T14:48:42;6.05;;;2.90;;
57395;SDS011;43222;52.912;6.940;2024-03-02T14:51:11;6.10;;;2.67;;
57395;SDS011;43222;52.912;6.940;2024-03-02T14:53:38;6.20;;;2.63;;
57395;SDS011;43222;52.912;6.940;2024-03-02T14:56:05;7.95;;;3.17;;
57395;SDS011;43222;52.912;6.940;2024-03-02T14:58:31;5.97;;;2.53;;
57395;SDS011;43222;52.912;6.940;2024-03-02T15:00:57;5.40;;;2.47;;
57395;SDS011;43222;52.912;6.940;2024-03-02T15:03:23;5.85;;;2.72;;
57395;SDS011;43222;52.912;6.940;2024-03-02T15:05:49;5.53;;;2.83;;